Flight Number: EUR1096 Duration: 3:30
Departure: Heraklion (Crete) (LGIR) at 18:30 Distance: 1449 Nm
Arrival: Gatwick Airport (EGKK) at 22:00 Equipment: MD-81

Weather Information
Heraklion Airport , Greece (LGIR) 35-20N 025-11E 39M Oct 19, 2018 - 01:50 PM EDT / 2018.10.19 1750 UTC
Wind: from the NE (040 degrees) at 3 MPH (3 KT):0
Visibility: greater than 7 mile(s):0
Sky conditions: partly cloudy Temperature: 69 F (21 C) Dew Point: 66 F (19 C) Relative Humidity: 88% Pressure (altimeter): 29.97 in. Hg (1015 hPa)
ob: LGIR 191750Z 04003KT 9999 SCT025 21/19 Q1015 NOSIG cycle: 18
Sunrise: 04:32 Sunset: 15:36 (UTC)

London / Gatwick Airport, United Kingdom (EGKK) 51-09N 000-11W 0M Oct 19, 2018 - 01:50 PM EDT / 2018.10.19 1750 UTC
Wind: from the WNW (300 degrees) at 5 MPH (4 KT) (direction variable):0
Visibility: greater than 7 mile(s):0 Temperature: 55 F (13 C) Dew Point: 44 F (7 C) Relative Humidity: 66% Pressure (altimeter): 30.33 in. Hg (1027 hPa)
ob: EGKK 191750Z 30004KT 190V340 CAVOK 13/07 Q1027 cycle: 18
Sunrise: 06:35 Sunset: 16:55 (UTC)

TAF:2018/10/19 18:12 TAF EGKK 191707Z 1918/2024 34004KT CAVOK BECMG 1922/2001 6000 PROB30 2001/2009 0500 FG VV/// BECMG 2009/2012 CAVOK BECMG 2021/2024 5000 HZ

Previous Pireps for this route
Date Aircraft Flight time Fuel used Landing rate On time
2013-10-27A32104.2327006-181Charter
2015-01-01MD-813.53245290No
2015-03-25MD-8103.4325616-374Yes
(pireps marked green are flown by you)

Route map